ESNO

Örnsköldsvik Airport

Örnsköldsvik, Sweden
METAR ESNO 231050Z 14010KT CAVOK 14/01 Q1026
Observed Flight Rules
May-23 @ 10:50 UTC (16 minutes ago) Visual Flight Rules
Wind Visibility Clouds
140° at 10 knots 10,000+ meters
  • Clear skies
Temperatures Readings
Current 14°C / 57°F
Dewpoint 1°C / 34°F
Humidity 41%
Altimeter 30.3" Hg
Pressure 1026 hPa
Elevation 103
METAR ESNO 231050Z 14010KT CAVOK 14/01 Q1026
Observed Flight Rules
May-23 @ 10:50 UTC
(16 minutes ago)
VFR
Wind Visibility
140° at 10 knots 10,000+ meters
Clouds
  • Clear skies
Temperature Dewpoint
14°C / 57°F 1°C / 34°F
Humidity Altimeter Pressure
41% 30.3" Hg 1026 hPa